Terminal Aerodrome Forecast
Issued by NWS

Home | Current Version | Previous Version | Text Only | Print | Product List | Glossary On
Versions: 1 2 3 4 5 6 7 8 9 10 11 12 13 14 15 16
000
FTAK31 PAJN 301100
TAFAGY
TAF
PAGY 301130Z 3012/3112 20011KT P6SM VCSH BKN050 BKN080
     FM301400 VRB05KT P6SM BKN070
     FM301800 03010KT P6SM SCT070
     FM310300 03010KT P6SM SCT100 BKN200
      AMD LTD TO CLD VIS AND WIND=

USA.gov is the U.S. government's official web portal to all federal, state and local government web resources and services.